Time;durP1;ratioP1;P1;durP2;ratioP2;P2;SDS_P1;SDS_P2;PMS_P1;PMS_P2;Temp;Humidity;BMP_temperature;BMP_pressure;BME280_temperature;BME280_humidity;BME280_pressure;Samples;Min_cycle;Max_cycle;Signal;HPM_P1;HPM_P2
2023/03/25 00:01:13;;;;;;;15.38;3.67;;;;;;;;;;4850099;29;20456;-90
2023/03/25 00:03:49;;;;;;;10.85;4.03;;;;;;;;;;4849972;29;20065;-89
2023/03/25 00:06:15;;;;;;;15.77;3.70;;;;;;;;;;4849892;29;20049;-90
2023/03/25 00:08:41;;;;;;;15.00;3.42;;;;;;;;;;4850418;29;20387;-90
2023/03/25 00:11:07;;;;;;;20.65;3.58;;;;;;;;;;4865125;29;20053;-90
2023/03/25 00:13:34;;;;;;;19.88;3.63;;;;;;;;;;4835039;29;20097;-90
2023/03/25 00:16:01;;;;;;;12.50;3.60;;;;;;;;;;4850098;29;20096;-90
2023/03/25 00:18:28;;;;;;;22.23;3.53;;;;;;;;;;4864991;29;20426;-90
2023/03/25 00:20:55;;;;;;;14.77;3.38;;;;;;;;;;4849638;29;20048;-90
2023/03/25 00:23:22;;;;;;;10.40;3.53;;;;;;;;;;4849683;29;20049;-90
2023/03/25 00:25:48;;;;;;;13.20;3.25;;;;;;;;;;4849685;29;20502;-90
2023/03/25 00:28:15;;;;;;;17.08;2.95;;;;;;;;;;4864897;29;20510;-91
2023/03/25 00:30:42;;;;;;;14.40;4.43;;;;;;;;;;4849618;29;20109;-91
2023/03/25 00:33:12;;;;;;;15.85;3.25;;;;;;;;;;4849374;29;20049;-90
2023/03/25 00:35:38;;;;;;;12.90;4.80;;;;;;;;;;4849539;29;20057;-90
2023/03/25 00:38:06;;;;;;;23.45;5.68;;;;;;;;;;4849231;29;20055;-90
2023/03/25 00:40:34;;;;;;;15.05;3.42;;;;;;;;;;4834823;29;20049;-90
2023/03/25 00:43:00;;;;;;;21.58;4.45;;;;;;;;;;4849247;29;20064;-91
2023/03/25 00:45:26;;;;;;;15.65;3.42;;;;;;;;;;4848856;29;20589;-91
2023/03/25 00:47:52;;;;;;;19.48;3.72;;;;;;;;;;4849202;29;20056;-90
2023/03/25 00:50:20;;;;;;;13.13;4.45;;;;;;;;;;4834335;29;20059;-91
2023/03/25 00:52:46;;;;;;;13.65;3.17;;;;;;;;;;4849872;29;20140;-92
2023/03/25 00:55:12;;;;;;;21.25;3.83;;;;;;;;;;4849226;29;20089;-91
2023/03/25 00:57:38;;;;;;;10.15;3.70;;;;;;;;;;4864516;29;20053;-90
2023/03/25 01:00:07;;;;;;;14.10;3.88;;;;;;;;;;4864693;29;20049;-90
2023/03/25 01:02:33;;;;;;;18.95;3.63;;;;;;;;;;4849365;29;20049;-92
2023/03/25 01:04:59;;;;;;;23.80;4.90;;;;;;;;;;4836133;29;20053;-92
2023/03/25 01:07:28;;;;;;;17.23;3.97;;;;;;;;;;4852273;29;20041;-92
2023/03/25 01:09:55;;;;;;;26.35;4.65;;;;;;;;;;4851966;29;20053;-91
2023/03/25 01:12:22;;;;;;;23.98;4.40;;;;;;;;;;4836583;29;20097;-91
2023/03/25 01:14:48;;;;;;;22.20;4.40;;;;;;;;;;4835583;29;20053;-92
2023/03/25 01:17:14;;;;;;;20.77;4.43;;;;;;;;;;4850657;29;20049;-91
2023/03/25 01:19:40;;;;;;;25.40;5.90;;;;;;;;;;4835675;29;20414;-91
2023/03/25 01:22:06;;;;;;;21.65;5.10;;;;;;;;;;4865605;29;20388;-91
2023/03/25 01:24:32;;;;;;;21.05;5.35;;;;;;;;;;4850049;29;20055;-91
2023/03/25 01:26:59;;;;;;;17.27;4.45;;;;;;;;;;4848745;29;20451;-91
2023/03/25 01:29:25;;;;;;;20.50;4.22;;;;;;;;;;4833341;29;20052;-91
2023/03/25 01:31:52;;;;;;;21.02;4.78;;;;;;;;;;4849008;29;20052;-91
2023/03/25 01:34:19;;;;;;;20.80;4.97;;;;;;;;;;4833706;29;20098;-91
2023/03/25 01:36:45;;;;;;;14.00;3.88;;;;;;;;;;4848347;29;20113;-91
2023/03/25 01:39:15;;;;;;;21.40;4.05;;;;;;;;;;4848612;29;20088;-91
2023/03/25 01:41:41;;;;;;;17.13;4.05;;;;;;;;;;4849066;29;20056;-91
2023/03/25 01:44:08;;;;;;;18.65;3.65;;;;;;;;;;4863756;29;20064;-90
2023/03/25 01:46:34;;;;;;;13.00;3.90;;;;;;;;;;4848409;29;20053;-91
2023/03/25 01:49:02;;;;;;;28.73;4.40;;;;;;;;;;4848514;29;20048;-90
2023/03/25 01:51:30;;;;;;;25.13;4.22;;;;;;;;;;4848511;29;20140;-91
2023/03/25 01:53:57;;;;;;;8.40;3.50;;;;;;;;;;4848443;29;20100;-90
2023/03/25 01:56:25;;;;;;;16.02;4.53;;;;;;;;;;4847472;29;20061;-91
2023/03/25 01:58:52;;;;;;;21.48;4.57;;;;;;;;;;4848146;29;20502;-90
2023/03/25 02:01:20;;;;;;;23.38;4.40;;;;;;;;;;4847855;29;20056;-90
2023/03/25 02:03:50;;;;;;;11.75;4.43;;;;;;;;;;4863983;29;20495;-90
2023/03/25 02:06:30;;;;;;;19.42;4.95;;;;;;;;;;4863147;29;20502;-91
2023/03/25 02:08:57;;;;;;;25.60;5.13;;;;;;;;;;4847798;29;20498;-90
2023/03/25 02:11:27;;;;;;;20.80;4.35;;;;;;;;;;4848079;29;20049;-90
2023/03/25 02:13:55;;;;;;;26.10;5.35;;;;;;;;;;4847989;29;20147;-92
2023/03/25 02:16:34;;;;;;;17.33;5.68;;;;;;;;;;4848006;29;20048;-91
2023/03/25 02:19:00;;;;;;;21.25;4.95;;;;;;;;;;4847700;29;20112;-91
2023/03/25 02:21:35;;;;;;;21.95;4.60;;;;;;;;;;4848246;29;20060;-91
2023/03/25 02:24:28;;;;;;;12.90;4.00;;;;;;;;;;4848257;29;20088;-91
2023/03/25 02:27:12;;;;;;;25.90;5.93;;;;;;;;;;4847681;29;20053;-90
2023/03/25 02:29:54;;;;;;;42.08;7.03;;;;;;;;;;4847578;29;20067;-91
2023/03/25 02:32:36;;;;;;;22.88;5.88;;;;;;;;;;4847589;29;20502;-90
2023/03/25 02:35:02;;;;;;;19.48;4.50;;;;;;;;;;4848076;29;20053;-91
2023/03/25 02:37:47;;;;;;;20.05;5.38;;;;;;;;;;4847775;29;20503;-91
2023/03/25 02:40:18;;;;;;;22.75;5.30;;;;;;;;;;4847420;29;20053;-90
2023/03/25 02:43:09;;;;;;;18.77;5.05;;;9.20;99.90;;;;;;4850441;29;20109;-90
2023/03/25 02:45:44;;;;;;;18.88;5.18;;;;;;;;;;4849052;29;20057;-91
2023/03/25 02:48:22;;;;;;;26.77;5.55;;;;;;;;;;4848296;29;20053;-91
2023/03/25 02:50:51;;;;;;;21.85;4.65;;;;;;;;;;4848053;29;20521;-91
2023/03/25 02:53:21;;;;;;;35.92;6.97;;;;;;;;;;4863266;29;20101;-91
2023/03/25 02:55:49;;;;;;;23.17;6.60;;;;;;;;;;4847844;29;20067;-91
2023/03/25 02:58:17;;;;;;;32.75;6.25;;;;;;;;;;4846964;29;20139;-91
2023/03/25 03:00:43;;;;;;;28.02;6.93;;;;;;;;;;4863077;29;20113;-91
2023/03/25 03:03:09;;;;;;;21.92;4.47;;;;;;;;;;4847856;29;20068;-91
2023/03/25 03:05:42;;;;;;;14.18;4.32;;;;;;;;;;4847698;29;20053;-91
2023/03/25 03:08:27;;;;;;;40.58;6.65;;;;;;;;;;4850067;29;20053;-91
2023/03/25 03:11:09;;;;;;;21.85;4.85;;;;;;;;;;4851396;29;20399;-92
2023/03/25 03:13:38;;;;;;;18.67;4.07;;;;;;;;;;4851376;29;20049;-91
2023/03/25 03:16:07;;;;;;;23.00;4.95;;;;;;;;;;4851600;29;20056;-91
2023/03/25 03:18:33;;;;;;;33.20;5.65;;;;;;;;;;4851010;29;20045;-92
2023/03/25 03:21:05;;;;;;;19.08;4.10;;;;;;;;;;4850957;29;20064;-91
2023/03/25 03:23:41;;;;;;;26.70;5.25;;;;;;;;;;4851499;29;20052;-91
2023/03/25 03:26:10;;;;;;;30.85;5.05;;;;;;;;;;4851009;29;20518;-92
2023/03/25 03:28:54;;;;;;;21.65;6.10;;;;;;;;;;4850856;29;20049;-92
2023/03/25 03:31:35;;;;;;;22.50;4.70;;;;;;;;;;4851402;29;20129;-91
2023/03/25 03:34:13;;;;;;;24.60;5.15;;;;;;;;;;4850720;29;20055;-91
2023/03/25 03:36:45;;;;;;;31.42;4.93;;;;;;;;;;4881781;29;20061;-91
2023/03/25 03:39:35;;;;;;;19.05;4.40;;;;;;;;;;4867785;29;20497;-91
2023/03/25 03:42:11;;;;;;;22.98;5.78;;;;;;;;;;4865823;29;20053;-91
2023/03/25 03:44:43;;;;;;;15.73;4.45;;;;;;;;;;4868138;29;20132;-90
2023/03/25 03:47:11;;;;;;;21.25;5.07;;;;;;;;;;4852232;29;20041;-91
2023/03/25 03:49:39;;;;;;;23.30;4.32;;;;;;;;;;4852605;29;20072;-91
2023/03/25 03:52:07;;;;;;;26.80;5.18;;;;;;;;;;4852454;29;20056;-92
2023/03/25 03:54:36;;;;;;;24.88;4.53;;;;;;;;;;4853828;29;20053;-92
2023/03/25 03:57:07;;;;;;;37.58;7.60;;;;;;;;;;4852784;29;20045;-91
2023/03/25 03:59:36;;;;;;;20.13;4.72;;;;;;;;;;4854318;29;20375;-90
2023/03/25 04:02:06;;;;;;;22.55;4.75;;;;;;;;;;4853624;29;20127;-91
2023/03/25 04:04:33;;;;;;;17.02;4.00;;;;;;;;;;4853574;29;20100;-91
2023/03/25 04:07:18;;;;;;;28.15;5.32;;;;;;;;;;4839529;29;20052;-92
2023/03/25 04:09:45;;;;;;;19.13;5.00;;;;;;;;;;4853749;29;20056;-92
2023/03/25 04:12:17;;;;;;;22.90;5.43;;;;;;;;;;4856409;29;20118;-91
2023/03/25 04:14:43;;;;;;;25.08;5.90;;;;;;;;;;4857056;29;20057;-91
2023/03/25 04:17:11;;;;;;;26.35;4.82;;;;;;;;;;4856109;29;20063;-91
2023/03/25 04:19:37;;;;;;;27.25;5.78;;;;;;;;;;4841121;29;20388;-91
2023/03/25 04:22:05;;;;;;;17.25;4.80;;;;;;;;;;4857930;29;20045;-90
2023/03/25 04:24:36;;;;;;;26.50;5.45;;;;;;;;;;4873461;29;20057;-91
2023/03/25 04:27:05;;;;;;;22.17;4.65;;;;;;;;;;4874777;29;20056;-90
2023/03/25 04:29:32;;;;;;;25.98;5.07;;;;;;;;;;4822762;29;20144;-90
2023/03/25 04:31:58;;;;;;;21.15;4.50;;;;;;;;;;4823860;29;20114;-91
2023/03/25 04:34:25;;;;;;;15.00;3.97;;;;;;;;;;4808727;29;20091;-90
2023/03/25 04:36:52;;;;;;;23.58;4.97;;;;;;;;;;4823527;29;20053;-92
2023/03/25 04:39:22;;;;;;;15.30;3.83;;;;;;;;;;4838757;29;20073;-91
2023/03/25 04:41:52;;;;;;;25.60;4.55;;;;;;;;;;4823446;29;20050;-91
2023/03/25 04:44:20;;;;;;;37.33;5.07;;;;;;;;;;4823537;29;20516;-91
2023/03/25 04:46:47;;;;;;;29.98;6.35;;;;;;;;;;4824262;29;20061;-91
2023/03/25 04:49:20;;;;;;;31.55;6.47;;;;;;;;;;4824326;29;20068;-90
2023/03/25 04:51:50;;;;;;;30.97;6.17;;;;;;;;;;4824642;29;20057;-91
2023/03/25 04:54:20;;;;;;;29.52;4.80;;;;;;;;;;4817475;29;20062;-91
2023/03/25 04:56:50;;;;;;;23.48;5.57;;;;;;;;;;4817214;29;20098;-93
2023/03/25 04:59:20;;;;;;;17.50;5.63;;;;;;;;;;4847213;29;20057;-92
2023/03/25 05:01:46;;;;;;;19.88;5.30;;;;;;;;;;4845996;29;20050;-92
2023/03/25 05:04:16;;;;;;;18.00;5.65;;;;;;;;;;4845919;29;20137;-92
2023/03/25 05:06:43;;;;;;;19.40;5.68;;;;;;;;;;4827660;29;20137;-91
2023/03/25 05:09:11;;;;;;;26.13;5.05;;;;;;;;;;4864846;29;20128;-91
2023/03/25 05:11:40;;;;;;;12.07;4.97;;;;;;;;;;4864393;29;20049;-91
2023/03/25 05:14:06;;;;;;;25.15;4.00;;;;;;;;;;4864143;29;20494;-91
2023/03/25 05:16:33;;;;;;;20.17;5.20;;;;;;;;;;4864555;29;20604;-91
2023/03/25 05:18:59;;;;;;;20.50;5.50;;;;;;;;;;4864138;29;20064;-91
2023/03/25 05:21:26;;;;;;;21.15;5.45;;;;;;;;;;4864598;29;20049;-91
2023/03/25 05:23:52;;;;;;;20.27;4.97;;;;;;;;;;4864281;29;20088;-92
2023/03/25 05:26:19;;;;;;;20.33;4.43;;;;;;;;;;4848659;29;20053;-91
2023/03/25 05:28:50;;;;;;;17.15;4.93;;;;;;;;;;4864137;29;20084;-92
2023/03/25 05:31:16;;;;;;;28.98;4.97;;;;;;;;;;4863125;29;20099;-91
2023/03/25 05:33:42;;;;;;;24.40;5.75;;;;;;;;;;4864039;29;20049;-92
2023/03/25 05:36:09;;;;;;;31.42;5.15;;;;;;;;;;4864405;29;20506;-91
2023/03/25 05:42:36;;;;;;;19.33;4.65;;;9.10;99.90;;;;;;4880633;29;20152;-91
2023/03/25 05:45:03;;;;;;;31.85;5.88;;;;;;;;;;4864369;29;20053;-91
2023/03/25 05:47:29;;;;;;;28.13;5.35;;;;;;;;;;4880088;29;20056;-91
2023/03/25 05:49:55;;;;;;;21.30;4.70;;;;;;;;;;4848614;29;20057;-92
2023/03/25 05:52:26;;;;;;;27.77;5.32;;;;;;;;;;4863906;29;20152;-93
2023/03/25 05:54:55;;;;;;;15.43;4.45;;;;;;;;;;4864242;29;20057;-92
2023/03/25 05:57:21;;;;;;;21.63;5.78;;;;;;;;;;4864346;29;20056;-92
2023/03/25 05:59:50;;;;;;;23.30;5.57;;;;;;;;;;4848382;29;20053;-91
2023/03/25 06:02:16;;;;;;;24.35;5.90;;;;;;;;;;4863791;29;20513;-91
2023/03/25 06:04:43;;;;;;;20.83;5.22;;;;;;;;;;4863830;29;20069;-92
2023/03/25 06:07:18;;;;;;;18.23;4.80;;;;;;;;;;4864223;29;20152;-93
2023/03/25 06:09:45;;;;;;;25.33;5.35;;;;;;;;;;4863894;29;20147;-93
2023/03/25 06:12:18;;;;;;;25.77;6.93;;;;;;;;;;4864067;29;20137;-92
2023/03/25 06:14:45;;;;;;;18.50;5.85;;;;;;;;;;4864221;29;20056;-93
2023/03/25 06:17:12;;;;;;;23.95;5.78;;;;;;;;;;4864277;29;20049;-92
2023/03/25 06:19:38;;;;;;;18.85;5.20;;;;;;;;;;4863914;29;20116;-93
2023/03/25 06:22:08;;;;;;;25.00;4.68;;;;;;;;;;4864226;29;20113;-92
2023/03/25 06:24:41;;;;;;;35.33;4.63;;;;;;;;;;4863518;29;20515;-92
2023/03/25 06:27:15;;;;;;;19.05;4.88;;;;;;;;;;4865795;29;20048;-91
2023/03/25 06:29:41;;;;;;;;;;;8.90;99.90;;;;;;4864757;29;20052;-92
2023/03/25 06:32:07;;;;;;;23.10;5.45;;;;;;;;;;4864489;29;20002;-92
2023/03/25 06:34:33;;;;;;;22.45;5.55;;;;;;;;;;4864795;29;20056;-92
2023/03/25 06:37:00;;;;;;;15.23;4.35;;;;;;;;;;4866762;29;20139;-91
2023/03/25 06:39:32;;;;;;;18.98;5.03;;;;;;;;;;4864807;29;20045;-92
2023/03/25 06:41:59;;;;;;;31.20;4.90;;;;;;;;;;4863025;29;20057;-92
2023/03/25 06:44:25;;;;;;;28.13;4.43;;;;;;;;;;4863785;29;20053;-93
2023/03/25 06:46:51;;;;;;;24.33;5.20;;;;;;;;;;4878759;29;20049;-93
2023/03/25 06:49:17;;;;;;;23.17;5.15;;;;;;;;;;4863526;29;20060;-92
2023/03/25 06:51:44;;;;;;;22.50;3.92;;;;;;;;;;4863994;29;20052;-92
2023/03/25 06:54:10;;;;;;;19.85;5.47;;;;;;;;;;4847960;29;20065;-93
2023/03/25 06:56:36;;;;;;;17.02;5.30;;;;;;;;;;4863200;29;20084;-92
2023/03/25 06:59:04;;;;;;;20.95;4.53;;;;;;;;;;4863142;29;20061;-92
2023/03/25 07:01:30;;;;;;;20.02;4.60;;;;;;;;;;4863534;29;20061;-92
2023/03/25 07:03:56;;;;;;;18.30;4.47;;;;;;;;;;4848287;29;20402;-92
2023/03/25 07:06:23;;;;;;;21.95;5.68;;;;;;;;;;4878547;29;20467;-92
2023/03/25 07:08:49;;;;;;;20.60;4.32;;;;;;;;;;4863072;29;20057;-92
2023/03/25 07:11:16;;;;;;;10.68;4.45;;;;;;;;;;4848532;29;20052;-92
2023/03/25 07:13:43;;;;;;;19.10;4.28;;;;;;;;;;4863525;29;20452;-92
2023/03/25 07:16:10;;;;;;;12.63;3.00;;;;;;;;;;4863203;29;20045;-91
2023/03/25 07:18:36;;;;;;;17.35;3.88;;;;;;;;;;4862961;29;20055;-91
2023/03/25 07:21:03;;;;;;;20.63;5.20;;;;;;;;;;4863383;29;20053;-91
2023/03/25 07:23:29;;;;;;;18.45;4.38;;;;;;;;;;4863691;29;20057;-92
2023/03/25 07:25:55;;;;;;;19.13;4.47;;;;;;;;;;4862606;29;20391;-92
2023/03/25 07:28:22;;;;;;;24.15;4.97;;;;;;;;;;4878035;29;20045;-92
2023/03/25 07:30:48;;;;;;;11.85;3.85;;;;;;;;;;4862386;29;20092;-92
2023/03/25 07:33:15;;;;;;;18.42;4.00;;;;;;;;;;4862847;29;20061;-91
2023/03/25 07:35:41;;;;;;;24.55;5.45;;;;;;;;;;4846961;29;20046;-90
2023/03/25 07:38:08;;;;;;;20.77;5.07;;;;;;;;;;4847432;29;20052;-91
2023/03/25 07:40:34;;;;;;;24.20;5.35;;;;;;;;;;4847478;29;20053;-91
2023/03/25 07:43:00;;;;;;;23.23;4.28;;;;;;;;;;4862732;29;20059;-93
2023/03/25 07:45:27;;;;;;;16.90;4.70;;;;;;;;;;4862531;29;20056;-92
2023/03/25 07:47:53;;;;;;;19.27;3.47;;;;;;;;;;4846779;29;20045;-90
2023/03/25 07:50:20;;;;;;;16.00;4.20;;;;;;;;;;4879070;29;20080;-91
2023/03/25 07:52:47;;;;;;;14.50;3.70;;;;;;;;;;4862514;29;20045;-91
2023/03/25 07:55:13;;;;;;;6.03;2.72;;;;;;;;;;4849804;29;20414;-91
2023/03/25 07:57:43;;;;;;;12.93;3.75;;;;;;;;;;4881280;29;20061;-92
2023/03/25 08:00:10;;;;;;;6.50;2.63;;;;;;;;;;4865717;29;20135;-91
2023/03/25 08:02:36;;;;;;;14.20;3.35;;;;;;;;;;4865588;29;20533;-90
2023/03/25 08:05:04;;;;;;;14.90;3.08;;;;;;;;;;4865434;29;20060;-91
2023/03/25 08:07:30;;;;;;;12.45;3.45;;;;;;;;;;4880902;29;20407;-91
2023/03/25 08:09:59;;;;;;;19.85;3.78;;;;;;;;;;4850958;29;20057;-91
2023/03/25 08:12:25;;;;;;;15.73;4.03;;;;;;;;;;4865351;29;20064;-92
2023/03/25 08:14:51;;;;;;;10.40;4.07;;;;;;;;;;4850537;29;20061;-92
2023/03/25 08:17:17;;;;;;;17.73;3.88;;;;;;;;;;4850519;29;20053;-91
2023/03/25 08:19:43;;;;;;;14.35;3.67;;;;;;;;;;4865793;29;20140;-91
2023/03/25 08:22:09;;;;;;;19.63;3.90;;;;;;;;;;4850559;29;20056;-92
2023/03/25 08:24:38;;;;;;;14.27;4.22;;;;;;;;;;4850272;29;20529;-91
2023/03/25 08:27:04;;;;;;;21.50;4.18;;;;;;;;;;4850483;29;20064;-92
2023/03/25 08:29:33;;;;;;;13.32;3.33;;;;;;;;;;4864903;29;20049;-92
2023/03/25 08:31:59;;;;;;;19.40;3.83;;;;;;;;;;4880768;29;20088;-91
2023/03/25 08:34:26;;;;;;;19.63;4.75;;;;;;;;;;4865118;29;20116;-92
2023/03/25 08:36:55;;;;;;;12.63;3.72;;;;;;;;;;4865764;29;20109;-92
2023/03/25 08:39:28;;;;;;;15.82;3.58;;;;;;;;;;4850075;29;20164;-92
2023/03/25 08:41:54;;;;;;;20.52;3.22;;;;;;;;;;4880254;29;20066;-92
2023/03/25 08:44:20;;;;;;;20.30;4.47;;;;;;;;;;4849849;29;20053;-91
2023/03/25 08:46:46;;;;;;;16.52;3.88;;;;;;;;;;4849801;29;20051;-91
2023/03/25 08:49:12;;;;;;;22.50;4.00;;;;;;;;;;4850160;29;20057;-91
2023/03/25 08:51:39;;;;;;;12.60;3.65;;;;;;;;;;4866808;29;20503;-91
2023/03/25 08:54:05;;;;;;;18.38;3.83;;;;;;;;;;4853816;29;20555;-91
2023/03/25 08:56:31;;;;;;;12.02;3.40;;;;;;;;;;4886024;29;20081;-91
2023/03/25 08:58:57;;;;;;;12.05;3.53;;;;;;;;;;4870091;29;20071;-91
2023/03/25 09:01:25;;;;;;;17.73;4.50;;;;;;;;;;4867632;29;20072;-91
2023/03/25 09:03:51;;;;;;;17.20;3.90;;;;;;;;;;4851280;29;20089;-91
2023/03/25 09:06:18;;;;;;;14.63;3.80;;;;;;;;;;4880104;29;20060;-91
2023/03/25 09:08:44;;;;;;;17.13;4.18;;;;;;;;;;4880209;29;20490;-91
2023/03/25 09:11:11;;;;;;;20.30;4.00;;;;;;;;;;4864817;29;20541;-91
2023/03/25 09:13:37;;;;;;;15.73;3.67;;;;;;;;;;4865146;29;20116;-90
2023/03/25 09:16:03;;;;;;;17.73;3.42;;;;;;;;;;4864971;29;20053;-90
2023/03/25 09:18:30;;;;;;;17.88;3.65;;;;;;;;;;4864156;29;20049;-91
2023/03/25 09:21:00;;;;;;;9.40;2.88;;;;;;;;;;4849012;29;20057;-91
2023/03/25 09:23:26;;;;;;;15.05;4.00;;;;;;;;;;4864244;29;20068;-92
2023/03/25 09:25:52;;;;;;;10.90;3.95;;;;;;;;;;4848873;29;20140;-91
2023/03/25 09:28:19;;;;;;;17.27;3.92;;;;;;;;;;4864707;29;20141;-92
2023/03/25 09:30:45;;;;;;;21.15;3.75;;;;;;;;;;4864144;29;20144;-91
2023/03/25 09:33:11;;;;;;;13.13;3.22;;;;;;;;;;4863879;29;20049;-92
2023/03/25 09:35:40;;;;;;;13.20;3.85;;;;;;;;;;4863860;29;20059;-91
2023/03/25 09:38:06;;;;;;;14.27;3.17;;;;;;;;;;4879618;29;20049;-91
2023/03/25 09:40:33;;;;;;;20.50;2.95;;;;;;;;;;4848975;29;20463;-91
2023/03/25 09:43:20;;;;;;;7.85;2.60;;;;;;;;;;4879780;29;20096;-91
2023/03/25 09:45:49;;;;;;;10.48;2.72;;;;;;;;;;4878025;29;20545;-91
2023/03/25 09:48:29;;;;;;;10.50;2.42;;;;;;;;;;4879039;29;20056;-92
2023/03/25 09:51:01;;;;;;;7.22;1.73;;;;;;;;;;4880726;29;20084;-92
2023/03/25 09:53:39;;;;;;;12.32;3.13;;;;;;;;;;4883867;29;20128;-90
2023/03/25 09:56:10;;;;;;;9.07;3.08;;;;;;;;;;4884711;29;20418;-91
2023/03/25 09:58:43;;;;;;;14.48;3.00;;;;;;;;;;4874953;29;20154;-91
2023/03/25 10:01:13;;;;;;;16.00;2.93;;;;;;;;;;4873781;29;20068;-91
2023/03/25 10:04:03;;;;;;;8.82;3.58;;;;;;;;;;4858927;29;20309;-91
2023/03/25 10:06:30;;;;;;;15.80;2.95;;;;;;;;;;4848842;29;20053;-91
2023/03/25 10:09:20;;;;;;;22.40;4.43;;;;;;;;;;4888791;29;20482;-91
2023/03/25 10:11:55;;;;;;;15.15;3.28;;;;;;;;;;4875483;29;20049;-90
2023/03/25 10:14:47;;;;;;;12.88;3.40;;;;;;;;;;4875289;29;20105;-90
2023/03/25 10:17:20;;;;;;;13.70;3.97;;;;;;;;;;4858526;29;20073;-90
2023/03/25 10:19:55;;;;;;;11.95;2.70;;;;;;;;;;4858352;29;20147;-90
2023/03/25 10:22:47;;;;;;;8.35;3.00;;;;;;;;;;4858920;29;20048;-90
2023/03/25 10:25:15;;;;;;;11.80;2.55;;;;;;;;;;4854588;29;20140;-91
2023/03/25 10:27:45;;;;;;;9.82;3.10;;;;;;;;;;4868669;29;20057;-91
2023/03/25 10:30:17;;;;;;;17.52;4.53;;;;;;;;;;4887415;29;20077;-91
2023/03/25 10:33:03;;;;;;;9.30;3.15;;;;;;;;;;4856043;29;20495;-90
2023/03/25 10:35:43;;;;;;;9.43;2.40;;;;;;;;;;4853342;29;20581;-91
2023/03/25 10:38:17;;;;;;;15.43;3.80;;;;;;;;;;4866821;29;20053;-91
2023/03/25 10:41:13;;;;;;;;;;;;;;;;;;;;;
2023/03/25 10:49:59;;;;;;;13.27;4.22;;;;;;;;;;5048848;23;20135;-91
2023/03/25 11:05:13;;;;;;;13.27;2.85;;;;;;;;;;5107369;23;20558;-91
2023/03/25 11:14:16;;;;;;;10.70;3.10;;;;;;;;;;1000204;27;20577;-95
2023/03/25 11:23:06;;;;;;;3.65;2.42;;;;;;;;;;4898050;23;20057;-91
2023/03/25 11:25:58;;;;;;;13.88;3.70;;;;;;;;;;4829700;29;20064;-94
2023/03/25 11:28:43;;;;;;;11.95;3.22;;;;;;;;;;4893682;23;20133;-95
2023/03/25 11:34:15;;;;;;;12.57;2.47;;;;;;;;;;5060988;23;20053;-96
2023/03/25 11:47:36;;;;;;;;;;;;;;;;;;;;;
2023/03/25 11:53:18;;;;;;;;;;;;;;;;;;;;;
2023/03/25 12:00:41;;;;;;;11.30;2.38;;;;;;;;;;4789800;29;20143;-93
2023/03/25 12:03:48;;;;;;;12.30;3.25;;;;;;;;;;4815559;29;20064;-93
2023/03/25 12:32:44;;;;;;;12.20;3.30;;;;;;;;;;4917540;23;20117;-91
2023/03/25 12:39:57;;;;;;;;;;;;;;;;;;;;;
2023/03/25 12:53:52;;;;;;;6.32;1.77;;;;;;;;;;4830489;23;20042;-90
2023/03/25 12:56:29;;;;;;;6.80;2.45;;;;;;;;;;4846259;29;20058;-93
2023/03/25 12:59:17;;;;;;;5.88;1.95;;;10.70;99.90;;;;;;4833699;29;20058;-92
2023/03/25 13:01:47;;;;;;;11.50;2.58;;;;;;;;;;4834498;29;20538;-92
2023/03/25 13:04:13;;;;;;;5.85;2.45;;;;;;;;;;4835624;29;20057;-91
2023/03/25 13:06:53;;;;;;;12.98;2.83;;;;;;;;;;4836416;29;20053;-92
2023/03/25 13:09:52;;;;;;;5.28;2.25;;;;;;;;;;4836995;29;20150;-91
2023/03/25 13:12:36;;;;;;;9.80;2.17;;;;;;;;;;4809865;29;20062;-90
2023/03/25 13:15:23;;;;;;;16.50;2.58;;;10.20;99.90;;;;;;4832296;29;20053;-91
2023/03/25 13:18:02;;;;;;;9.27;2.85;;;;;;;;;;4831184;29;20057;-89
2023/03/25 13:20:30;;;;;;;13.00;2.60;;;;;;;;;;4847285;29;20107;-90
2023/03/25 13:23:00;;;;;;;6.85;2.25;;;;;;;;;;4831293;29;20053;-90
2023/03/25 13:25:33;;;;;;;8.70;2.53;;;;;;;;;;4830802;29;20057;-91
2023/03/25 13:28:02;;;;;;;14.38;2.30;;;;;;;;;;4830553;29;20089;-92
2023/03/25 13:30:35;;;;;;;12.48;3.53;;;;;;;;;;4831276;29;20392;-92
2023/03/25 13:33:09;;;;;;;9.98;2.25;;;;;;;;;;4830748;29;20117;-91
2023/03/25 13:35:38;;;;;;;7.90;3.17;;;;;;;;;;4830629;29;20050;-90
2023/03/25 13:38:09;;;;;;;10.23;2.60;;;;;;;;;;4830888;29;20060;-93
2023/03/25 13:40:55;;;;;;;3.92;1.80;;;;;;;;;;4830882;29;20060;-91
2023/03/25 13:43:45;;;;;;;8.95;2.05;;;;;;;;;;4830293;29;20064;-92
2023/03/25 13:46:13;;;;;;;5.13;1.80;;;;;;;;;;4830508;29;20057;-91
2023/03/25 13:48:52;;;;;;;8.80;1.88;;;;;;;;;;4830202;29;20423;-91
2023/03/25 13:51:19;;;;;;;6.63;1.50;;;;;;;;;;4829577;29;20507;-89
2023/03/25 13:53:45;;;;;;;5.70;1.88;;;;;;;;;;4830160;29;20522;-90
2023/03/25 13:56:33;;;;;;;7.88;2.22;;;9.60;99.90;;;;;;4830388;29;20129;-93
2023/03/25 13:59:13;;;;;;;4.28;2.47;;;;;;;;;;4847229;29;20376;-94
2023/03/25 14:01:58;;;;;;;7.43;1.48;;;;;;;;;;4832078;29;20057;-92
2023/03/25 14:04:30;;;;;;;10.30;2.40;;;;;;;;;;4831758;29;20066;-90
2023/03/25 14:07:03;;;;;;;7.38;1.95;;;;;;;;;;4830987;29;20053;-94
2023/03/25 14:09:48;;;;;;;7.60;1.63;;;;;;;;;;4829714;29;20061;-89
2023/03/25 14:12:17;;;;;;;16.90;2.17;;;;;;;;;;4845384;29;20081;-90
2023/03/25 14:14:54;;;;;;;5.05;1.80;;;;;;;;;;4830375;29;20097;-90
2023/03/25 14:17:21;;;;;;;10.25;2.70;;;;;;;;;;4829995;29;20089;-93
2023/03/25 14:19:54;;;;;;;7.65;2.20;;;;;;;;;;4845041;29;20104;-92
2023/03/25 14:22:40;;;;;;;8.85;2.65;;;;;;;;;;4830292;29;20068;-93
2023/03/25 14:25:13;;;;;;;14.98;2.67;;;;;;;;;;4845139;29;20125;-90
2023/03/25 14:27:40;;;;;;;15.77;2.88;;;;;;;;;;4829303;29;20144;-90
2023/03/25 14:30:07;;;;;;;13.73;4.50;;;;;;;;;;4814713;29;20155;-92
2023/03/25 14:32:33;;;;;;;9.60;2.58;;;;;;;;;;4829399;29;20088;-91
2023/03/25 14:35:18;;;;;;;10.75;2.42;;;;;;;;;;4829694;29;20053;-91
2023/03/25 14:37:44;;;;;;;17.95;4.35;;;;;;;;;;4829205;29;20541;-93
2023/03/25 14:40:32;;;;;;;14.25;2.92;;;;;;;;;;4829801;29;20067;-91
2023/03/25 14:42:59;;;;;;;6.53;2.60;;;;;;;;;;4829882;29;20096;-91
2023/03/25 14:45:35;;;;;;;11.02;3.17;;;;;;;;;;4829469;29;20451;-90
2023/03/25 14:48:04;;;;;;;5.20;1.90;;;;;;;;;;4829211;29;20054;-92
2023/03/25 14:50:33;;;;;;;10.93;2.28;;;;;;;;;;4829695;29;20054;-90
2023/03/25 14:53:09;;;;;;;6.53;1.90;;;;;;;;;;4829324;29;20057;-91
2023/03/25 14:55:43;;;;;;;6.22;1.70;;;;;;;;;;4829429;29;20065;-91
2023/03/25 14:58:22;;;;;;;6.93;2.13;;;;;;;;;;4844253;29;20522;-90
2023/03/25 15:00:59;;;;;;;4.10;1.55;;;;;;;;;;4829048;29;20093;-90
2023/03/25 15:03:32;;;;;;;11.60;2.17;;;;;;;;;;4830676;29;20136;-89
2023/03/25 15:05:59;;;;;;;9.53;2.73;;;;;;;;;;4832456;29;20518;-88
2023/03/25 15:08:35;;;;;;;15.05;3.38;;;;;;;;;;4847533;29;20053;-90
2023/03/25 15:11:04;;;;;;;9.38;2.72;;;;;;;;;;4832713;29;20144;-88
2023/03/25 15:13:42;;;;;;;5.63;1.73;;;;;;;;;;4832595;29;20084;-89
2023/03/25 15:16:34;;;;;;;6.07;2.15;;;9.40;99.90;;;;;;4832673;29;20117;-89
2023/03/25 15:19:02;;;;;;;6.13;1.75;;;;;;;;;;4848250;29;20061;-89
2023/03/25 15:21:31;;;;;;;5.18;1.77;;;;;;;;;;4833568;29;20053;-88
2023/03/25 15:24:05;;;;;;;8.73;3.53;;;;;;;;;;4832608;29;20065;-91
2023/03/25 15:26:31;;;;;;;;;;;;;;;;;;4847878;29;20057;-88
2023/03/25 15:29:16;;;;;;;12.32;3.30;;;;;;;;;;4832329;29;19976;-88
2023/03/25 15:31:54;;;;;;;8.80;3.25;;;;;;;;;;4832759;29;20058;-88
2023/03/25 15:34:32;;;;;;;7.88;2.70;;;;;;;;;;4847788;29;20067;-90
2023/03/25 15:36:59;;;;;;;10.20;1.98;;;;;;;;;;4832093;29;20178;-89
2023/03/25 15:39:34;;;;;;;8.73;3.08;;;;;;;;;;4832930;29;20583;-89
2023/03/25 15:42:06;;;;;;;6.68;2.25;;;;;;;;;;4832170;29;20106;-90
2023/03/25 15:44:35;;;;;;;7.13;2.00;;;;;;;;;;4832577;29;20054;-91
2023/03/25 15:47:06;;;;;;;13.77;2.50;;;;;;;;;;4832063;29;20503;-88
2023/03/25 15:49:35;;;;;;;9.07;2.38;;;;;;;;;;4847472;29;20123;-89
2023/03/25 15:52:01;;;;;;;5.70;1.60;;;;;;;;;;4847088;29;20057;-88
2023/03/25 15:54:32;;;;;;;8.07;2.25;;;;;;;;;;4831717;29;20136;-89
2023/03/25 15:57:06;;;;;;;3.63;1.45;;;;;;;;;;4831616;29;20057;-89
2023/03/25 15:59:37;;;;;;;5.47;2.30;;;;;;;;;;4832542;29;20058;-90
2023/03/25 16:02:05;;;;;;;5.70;1.63;;;;;;;;;;4832572;29;20060;-88
2023/03/25 16:04:31;;;;;;;9.95;2.40;;;;;;;;;;4847262;29;20056;-89
2023/03/25 16:07:00;;;;;;;4.50;1.60;;;;;;;;;;4832010;29;20533;-90
2023/03/25 16:09:28;;;;;;;4.53;1.40;;;;;;;;;;4831420;29;20060;-88
2023/03/25 16:12:01;;;;;;;9.68;2.65;;;;;;;;;;4831581;29;20057;-89
2023/03/25 16:14:32;;;;;;;10.00;4.13;;;;;;;;;;4846230;29;20503;-88
2023/03/25 16:17:00;;;;;;;8.32;2.33;;;;;;;;;;4831933;29;20049;-90
2023/03/25 16:19:31;;;;;;;6.85;1.98;;;;;;;;;;4831979;29;20853;-91
2023/03/25 16:22:01;;;;;;;15.23;3.30;;;;;;;;;;4847148;29;20053;-89
2023/03/25 16:24:32;;;;;;;6.00;1.77;;;;;;;;;;4831759;29;20053;-89
2023/03/25 16:27:08;;;;;;;5.70;1.60;;;;;;;;;;4831632;29;20060;-90
2023/03/25 16:29:35;;;;;;;7.15;2.22;;;;;;;;;;4831823;29;20128;-89
2023/03/25 16:32:03;;;;;;;10.45;2.28;;;;;;;;;;4817248;29;20081;-91
2023/03/25 16:34:34;;;;;;;4.72;2.08;;;;;;;;;;4847811;29;20053;-90
2023/03/25 16:37:01;;;;;;;13.73;2.85;;;;;;;;;;4831817;29;20190;-89